Portola Hills, California
Current Conditions -  °F | °C
As of 1:53 PM on Wednesday 26 Nov 2014 (Local Time) from KSNA Reporting Station
Clear Clear  
Wind Chill: 78°   Ceiling: Unl
Heat Index: 78°   Visibility: 10mi
Dew Point: 44°   Wind: 9mph
Humidity: 30%   Direction: 210°SSW
Pressure: 30.13"   Gusts: NA
Location:  33.6153°N, 117.532°W
Report Text: KSNA 262153Z 21008KT 10SM CLR 26/07 A3013 RMK AO2 SLP201 T02560067
Loading
Personal Weather Stations






























Interactive Weather Map New forecast layout! Learn more

10-Day Weather Forecast

Advertisements
Track Severe Weather on mobile